首页
METAR-TAF:

METAR-TAF

机场 :

Millville, 新泽西州, 美国

纬度: 39-21-58N, 经度: 075-04-42W, 海拔: 26米

当前天气观测

该预报发布于35分钟前的09:01 UTC
风速8节,风向东北
温度 9°C
湿度 100%
气压 1014 hPa
能見度: 6.4公里
阴天层高于200英尺
轻雾

METAR: KMIV 290901Z AUTO 04008KT 4SM BR OVC002 09/09 A2993 RMK AO2 T00940089

时间: 05:36 (09:36 UTC)

预报

该预报发布于4小时和7分钟前的05:29 UTC
预报有效从29日的 06点(UTC)到 30日的 06点(UTC)
风速4节,风向多变
能見度: 0.8公里
层高于200英尺
小毛毛雨, 雾
从 29日的 1200点(UTC)
风速5节,风向东北
能見度: 3.2公里
阴天层高于500英尺
轻雾
从 29日的 1900点(UTC)
风速3节,风向多变
能見度: 10公里
多云层高于1500英尺
几率 30%
从 29日的 21点(UTC)到 29日的 24点(UTC)
能見度: 6.4公里
阴天层高于1500英尺
小阵雨
从 30日的 0100点(UTC)
风速3节,风向多变
能見度: 9.7公里
散云层高于4000英尺
轻雾

TAF: KMIV 290529Z 2906/3006 VRB04KT 1/2SM -DZ FG VV002 FM291200 05005KT 2SM BR OVC005 FM291900 VRB03KT P6SM BKN015 PROB30 2921/2924 4SM -SHRA OVC015 FM300100 VRB03KT 6SM BR SCT040

超过4000个机场的气象观测和天气预报(METAR&TAF报告)。

可查询的气象台以黄色和红色小点在地图上表示。

将鼠标移到小点上方,可查看气象台名称。

然后点击查看天气观测和预报。

如需切换地图:点击带黑十字的绿色按钮放大地图;点击带横线的绿色按钮缩小地图;或者点击绿色箭头查看邻近地区的地图。


METAR-TAF: